Taloyoak Airport
CYYH : now visible

Airfield :











YOU CAN JOIN US ON...

 
LOGIN :

Register | Disclaimer

   EN    FR    IT 

 









Legend :    VFR   Marginal VFR   IFR   Intensive IFR   Very Intensive IFR
Visi :
Ceiling :
>= 8 km
>= 3000ft
5 to 8 km
1000 to 3000 ft
1500m to 5 km
500 to 1000 ft
800 to 1500m
200 to 500 ft
< 800m
< 200 ft
Symbols :   Thunderstorms  Fog  Heavy snow  Heavy precipitations  Wind > 20 kt






- Airport Elevation : 92 ft
- IATA code : YYH


CYYH - Taloyoak

CURRENT METAR :
  • 280900Z 17011KT 15SM IC SCT130 M35/M39 A3008 RMK AC3 SLP193

EXPIRED METARs :
  • 280800Z 17008KT 15SM IC FEW130 M36/M40 A3010 RMK AC2 FROIN SLP200
  • 280700Z 18008KT 12SM IC VCFG SCT130 M35/M40 A3011 RMK AC3 SLP203

TAF TAF CYYH
Valid from the 28 at 06:00 until the 28 at 18:00 UTC


280540Z 2806/2818 18010KT P6SM SCT120
FM281000 18010KT P6SM SCT020 BKN100
TEMPO 2810/2818 5SM -SN BKN020 OVC080 RMK NXT FCST BY 281200Z



MET'MAP, your aeronautical weather chart ! - Copyright ORBIFLY December 2007 - Disclaimer

ORBIFLY MET'MAP TEAM :

Programming & Development : Alexandra Zaïnal
Concept & original design : Baudouin d'Aumeries
Assistance for programming : Marc-Olivier Méhu
Technical & hardware support : Manuel Goepfert

Contact : metmap@orbifly.com




SOURCES & CREDITS :

   NOAA       Earth
Advisory